createdAt,value
2018-04-23T10:30:33.952Z,24.84
2018-04-23T10:31:06.864Z,24.83
2018-04-23T10:31:39.727Z,24.81
2018-04-23T10:32:12.536Z,24.80
2018-04-23T10:32:45.360Z,24.78
2018-04-23T10:33:18.233Z,24.77
2018-04-23T10:33:51.110Z,24.76
2018-04-23T10:34:24.033Z,24.76
2018-04-23T10:34:56.845Z,24.75
2018-04-23T10:35:30.307Z,24.74
2018-04-23T10:36:03.314Z,24.73
2018-04-23T10:36:36.286Z,24.70
2018-04-23T10:37:09.084Z,24.70
2018-04-23T10:37:41.924Z,24.69
2018-04-23T10:38:14.797Z,24.69
2018-04-23T10:38:47.659Z,24.69
2018-04-23T10:39:20.547Z,24.68
2018-04-23T10:39:53.396Z,24.68
2018-04-23T10:40:26.265Z,24.68
2018-04-23T10:40:59.243Z,24.67
2018-04-23T10:41:32.124Z,24.67
2018-04-23T10:42:04.988Z,24.66
2018-04-23T10:42:37.964Z,24.65
2018-04-23T10:43:11.472Z,24.64
2018-04-23T10:43:44.316Z,24.64
2018-04-23T10:44:17.249Z,24.64
2018-04-23T10:44:50.411Z,24.64
2018-04-23T10:45:23.254Z,24.62
2018-04-23T10:45:56.113Z,24.61
2018-04-23T10:46:28.932Z,24.61
2018-04-23T10:47:01.852Z,24.61
2018-04-23T10:47:34.665Z,24.61
2018-04-23T10:48:07.453Z,24.60
2018-04-23T10:48:40.749Z,24.60
2018-04-23T10:49:13.645Z,24.59
2018-04-23T10:49:46.619Z,24.58
2018-04-23T10:50:19.485Z,24.57
2018-04-23T10:50:52.363Z,24.56
2018-04-23T10:51:26.050Z,24.55
2018-04-23T10:51:58.933Z,24.53
2018-04-23T10:52:31.748Z,24.53
2018-04-23T10:53:04.534Z,24.52
2018-04-23T10:53:37.327Z,24.52
2018-04-23T10:54:10.241Z,24.51
2018-04-23T10:54:43.085Z,24.50
2018-04-23T10:55:15.964Z,24.49
2018-04-23T10:55:48.813Z,24.49
2018-04-23T10:56:21.612Z,24.48
2018-04-23T10:56:54.657Z,24.48
2018-04-23T10:57:27.750Z,24.47
2018-04-23T10:58:00.697Z,24.47
2018-04-23T10:58:33.576Z,24.46
2018-04-23T10:59:06.380Z,24.45
2018-04-23T10:59:39.238Z,24.45
2018-04-23T11:00:12.052Z,24.46
2018-04-23T11:00:44.848Z,24.46
2018-04-23T11:01:17.720Z,24.46
2018-04-23T11:01:50.715Z,24.46
2018-04-23T11:02:23.528Z,24.46
2018-04-23T11:28:24.836Z,33.05
2018-04-23T11:28:57.689Z,33.17
2018-04-23T11:29:30.528Z,33.27
2018-04-23T11:30:10.350Z,33.26
2018-04-23T11:30:43.221Z,33.28
2018-04-23T11:31:16.166Z,33.35
2018-04-23T11:31:49.482Z,33.37
2018-04-23T11:32:25.166Z,33.29
2018-04-23T11:33:56.235Z,33.37
2018-04-23T11:35:52.784Z,32.83
2018-04-23T11:42:17.657Z,34.01
2018-04-23T11:42:48.960Z,34.12
2018-04-23T11:43:21.387Z,34.15
2018-04-23T11:43:52.613Z,34.22
2018-04-23T11:44:23.916Z,34.18
2018-04-23T11:44:58.335Z,34.21
2018-04-23T11:45:29.559Z,34.23
2018-04-23T11:46:00.831Z,34.25
2018-04-23T11:46:32.058Z,34.32
2018-04-23T11:47:03.309Z,34.35
2018-04-23T11:47:34.531Z,34.38
2018-04-23T11:48:05.765Z,34.30
2018-04-23T11:49:13.715Z,34.26
2018-04-23T11:49:44.929Z,34.25
2018-04-23T11:50:16.239Z,34.34
2018-04-23T11:50:47.482Z,34.41
2018-04-23T11:51:18.746Z,34.40
2018-04-23T11:51:49.962Z,34.38
2018-04-23T11:52:21.419Z,34.38
2018-04-23T11:52:52.742Z,34.45
2018-04-23T11:53:23.983Z,34.32
2018-04-23T11:53:55.266Z,34.12
2018-04-23T11:54:47.794Z,34.20
2018-04-23T11:57:57.822Z,34.41
2018-04-23T11:58:29.097Z,34.48
2018-04-23T11:59:00.322Z,34.53
2018-04-23T12:00:11.514Z,34.53
2018-04-23T12:00:42.746Z,34.51
2018-04-23T12:01:13.996Z,34.44
2018-04-23T12:01:45.213Z,34.43
2018-04-23T12:02:16.441Z,34.39
2018-04-23T12:02:48.745Z,34.42
2018-04-23T12:03:19.957Z,34.36
2018-04-23T12:03:51.164Z,34.15
2018-04-23T12:04:22.457Z,34.15
2018-04-23T12:04:53.684Z,34.26
2018-04-23T12:05:24.964Z,34.18
2018-04-23T12:05:56.768Z,34.42
2018-04-23T12:06:28.005Z,34.49
2018-04-23T12:06:59.372Z,34.42
2018-04-23T12:07:30.613Z,34.40
2018-04-23T12:08:01.875Z,34.48
2018-04-23T12:08:33.096Z,34.46
2018-04-23T12:09:04.329Z,34.26
2018-04-23T12:10:04.444Z,34.23
2018-04-23T12:10:35.661Z,34.17
2018-04-23T12:11:06.878Z,34.18
2018-04-23T12:11:38.117Z,34.17
2018-04-23T12:12:09.334Z,34.14
2018-04-23T12:12:40.546Z,34.09
2018-04-23T12:13:11.757Z,34.12
2018-04-23T12:13:42.979Z,34.07
2018-04-23T12:14:14.189Z,34.04
2018-04-23T12:14:45.424Z,34.05
2018-04-23T12:15:16.680Z,34.00
2018-04-23T12:16:25.811Z,34.14
2018-04-23T12:16:57.027Z,34.22
2018-04-23T12:17:29.978Z,34.24
2018-04-23T12:20:37.497Z,33.79
2018-04-23T13:33:02.423Z,32.52
2018-04-23T13:33:33.678Z,32.42
2018-04-23T13:34:06.930Z,32.44
2018-04-23T13:34:38.253Z,32.45
2018-04-23T13:35:10.261Z,32.53
2018-04-23T13:35:41.512Z,32.58
2018-04-23T13:36:12.749Z,32.68
2018-04-23T13:36:44.032Z,32.75
2018-04-23T13:37:15.265Z,32.81
2018-04-23T13:37:46.484Z,32.90
2018-04-23T13:38:17.730Z,32.92
2018-04-23T13:38:50.160Z,33.00
2018-04-23T13:39:21.409Z,33.06
2018-04-23T13:39:52.702Z,33.14
2018-04-23T13:40:23.938Z,33.15
2018-04-23T13:40:55.171Z,33.21
2018-04-23T13:41:27.660Z,33.22
2018-04-23T13:42:04.363Z,33.32
2018-04-23T14:04:12.911Z,32.65
2018-04-23T14:04:44.394Z,32.24
2018-04-23T14:05:15.658Z,31.88
2018-04-23T14:05:51.449Z,32.07
2018-04-23T14:10:12.255Z,32.27
2018-04-23T14:10:43.686Z,32.31
2018-04-23T14:11:16.542Z,32.01
2018-04-23T14:12:55.018Z,32.58
2018-04-23T14:13:34.780Z,32.67
2018-04-23T14:14:06.049Z,32.76
2018-04-23T14:14:39.422Z,32.81
2018-04-23T14:15:45.233Z,32.33
2018-04-23T14:16:17.785Z,32.41
2018-04-23T14:16:50.258Z,32.47
2018-04-23T14:18:11.914Z,32.31
2018-04-23T14:18:43.199Z,32.25
2018-04-23T14:19:14.563Z,32.24
2018-04-23T14:19:46.090Z,32.24
2018-04-23T14:21:11.718Z,32.25
2018-04-23T14:22:32.571Z,32.28
2018-04-23T14:23:43.719Z,32.29
2018-04-23T14:24:15.045Z,32.29
2018-04-23T14:24:46.340Z,32.31
2018-04-23T14:25:20.647Z,32.34
2018-04-23T14:25:52.779Z,32.38
2018-04-23T14:26:24.171Z,32.39
2018-04-23T14:26:59.020Z,32.44
2018-04-23T14:27:31.515Z,32.46
2018-04-23T14:28:02.899Z,32.42
2018-04-23T14:28:35.333Z,32.38
2018-04-23T14:30:33.264Z,32.24
2018-04-23T14:31:04.628Z,32.24
2018-04-23T14:31:41.101Z,32.24
2018-04-23T14:32:12.454Z,32.25
2018-04-23T14:32:43.886Z,32.30
2018-04-23T14:33:15.561Z,32.35
2018-04-23T14:33:56.469Z,32.45
2018-04-23T14:34:27.868Z,32.38
2018-04-23T14:35:00.524Z,32.69
2018-04-23T14:36:10.500Z,32.72
2018-04-23T14:36:43.090Z,32.81
2018-04-23T14:37:22.174Z,32.85
2018-04-23T14:37:53.511Z,32.82
2018-04-23T14:38:25.821Z,32.75
2018-04-23T14:41:51.039Z,32.59
2018-04-23T14:42:22.474Z,32.54
2018-04-23T14:42:53.805Z,32.48
2018-04-23T14:43:25.146Z,32.32
2018-04-23T14:44:00.393Z,32.11
2018-04-23T14:44:31.729Z,32.39
2018-04-23T14:45:07.224Z,32.43
2018-04-23T14:45:39.386Z,32.50
2018-04-23T14:46:11.815Z,32.54
2018-04-23T14:46:43.247Z,32.57
2018-04-23T14:47:14.644Z,32.40
2018-04-23T14:47:46.178Z,32.45
2018-04-23T14:48:17.527Z,32.45
2018-04-23T14:49:32.591Z,32.39
2018-04-23T14:50:05.554Z,32.32
2018-04-23T14:50:36.927Z,32.33
2018-04-23T14:51:11.922Z,32.32
2018-04-23T14:51:43.317Z,32.30
2018-04-23T14:52:16.802Z,32.25
2018-04-23T14:52:52.986Z,32.22
2018-04-23T14:53:27.501Z,32.20
2018-04-23T14:53:59.841Z,32.21
2018-04-23T14:54:57.131Z,32.23
2018-04-23T14:55:28.570Z,32.24
2018-04-23T14:56:00.035Z,32.23
2018-04-23T14:56:35.361Z,32.17
2018-04-23T15:00:00.652Z,32.27
2018-04-23T15:00:38.504Z,31.58
2018-04-23T15:01:11.069Z,32.32
2018-04-23T15:01:46.026Z,32.31
2018-04-23T15:02:32.822Z,32.30
2018-04-23T15:03:05.288Z,32.34
2018-04-23T15:03:36.606Z,32.30
2018-04-23T15:04:12.485Z,32.27
2018-04-23T15:04:44.674Z,32.25
2018-04-23T15:08:10.601Z,32.15
2018-04-23T15:08:42.771Z,32.01
2018-04-23T15:09:14.252Z,31.88
2018-04-23T15:09:45.598Z,31.84
2018-04-23T15:10:16.927Z,31.86
2018-04-23T15:10:51.288Z,31.81
2018-04-23T15:11:25.030Z,31.83
2018-04-23T15:11:57.532Z,31.81
2018-04-23T15:12:28.873Z,31.79
2018-04-23T15:13:01.231Z,31.72
2018-04-23T15:13:32.580Z,31.68
2018-04-23T15:14:04.927Z,31.69
2018-04-23T15:14:55.765Z,31.69
2018-04-23T15:15:27.095Z,31.78
2018-04-23T15:15:58.475Z,31.84
2018-04-23T15:16:29.760Z,31.83
2018-04-23T15:17:01.044Z,31.93
2018-04-23T15:17:32.329Z,31.87
2018-04-23T15:18:03.591Z,31.80
2018-04-23T15:18:34.856Z,31.71
2018-04-23T15:19:06.157Z,31.67
2018-04-23T15:19:37.369Z,31.73
2018-04-23T15:20:08.612Z,31.78
2018-04-23T15:20:39.829Z,31.83
2018-04-23T15:21:11.037Z,31.78
2018-04-23T15:21:42.267Z,31.78
2018-04-23T15:22:14.691Z,31.81
2018-04-23T15:22:45.916Z,31.86
2018-04-23T15:23:17.142Z,31.89
2018-04-23T15:23:48.370Z,31.87
2018-04-23T15:24:19.629Z,31.91
2018-04-23T15:24:50.848Z,31.94
2018-04-23T15:25:22.061Z,31.95
2018-04-23T15:25:53.376Z,31.96
2018-04-23T15:26:24.626Z,31.80
2018-04-23T15:26:55.847Z,31.87
2018-04-23T15:27:27.108Z,31.84
2018-04-23T15:27:58.317Z,31.77
2018-04-23T15:28:29.523Z,31.73
2018-04-23T15:29:00.729Z,31.74
2018-04-23T15:29:31.933Z,31.80
2018-04-23T15:30:03.155Z,31.84
2018-04-23T15:30:34.358Z,31.86
2018-04-23T15:31:05.634Z,31.90
2018-04-23T15:31:36.849Z,31.92
2018-04-23T15:32:08.048Z,31.86
2018-04-23T15:32:39.305Z,31.85
2018-04-23T15:33:10.512Z,31.85
2018-04-23T15:33:41.717Z,31.88
2018-04-23T15:34:12.923Z,31.89
2018-04-23T15:34:44.133Z,31.92
2018-04-23T15:35:15.390Z,31.93
2018-04-23T15:35:46.620Z,31.91
2018-04-23T15:36:17.883Z,31.89
2018-04-23T15:36:49.187Z,31.88
2018-04-23T15:37:20.399Z,31.90
2018-04-23T15:37:51.602Z,31.91
2018-04-23T15:38:22.840Z,31.84
2018-04-23T15:38:54.065Z,31.66
2018-04-23T15:39:25.333Z,31.84
2018-04-23T15:39:56.588Z,31.86
2018-04-23T15:40:27.789Z,31.88
2018-04-23T15:40:58.997Z,31.91
2018-04-23T15:41:30.228Z,31.92
2018-04-23T15:42:01.493Z,31.94
2018-04-23T15:42:32.717Z,31.77
2018-04-23T15:43:03.929Z,31.76
2018-04-23T15:43:35.248Z,31.75
2018-04-23T15:44:06.480Z,31.77
2018-04-23T15:44:37.705Z,31.74
2018-04-23T15:45:08.912Z,31.73
2018-04-23T15:45:40.118Z,31.71
2018-04-23T15:46:11.409Z,31.44
2018-04-23T15:46:42.664Z,31.55
2018-04-23T15:47:13.965Z,31.46
2018-04-23T15:47:45.170Z,31.39
2018-04-23T15:48:16.416Z,31.31
2018-04-23T15:48:47.694Z,31.29
2018-04-23T15:49:18.973Z,31.28
2018-04-23T15:49:50.205Z,31.27
2018-04-23T15:50:21.490Z,31.28
2018-04-23T15:50:52.712Z,31.29
2018-04-23T15:51:23.978Z,31.27
2018-04-23T15:51:55.184Z,31.25
2018-04-23T15:52:26.469Z,31.19
2018-04-23T15:52:57.704Z,30.88
2018-04-23T15:53:28.916Z,31.16
2018-04-23T15:54:00.185Z,31.04
2018-04-23T15:54:31.399Z,31.02
2018-04-23T15:55:02.612Z,31.04
2018-04-23T15:55:33.845Z,31.01
2018-04-23T15:56:05.093Z,31.05
2018-04-23T15:56:36.338Z,31.09
2018-04-23T15:57:07.696Z,31.10
2018-04-23T15:57:38.905Z,31.04
2018-04-23T15:58:10.137Z,31.04
2018-04-23T15:58:46.198Z,31.00
2018-04-23T15:59:17.592Z,30.92
2018-04-23T15:59:49.315Z,30.87
2018-04-23T16:00:20.537Z,30.76
2018-04-23T16:00:51.767Z,30.85
2018-04-23T16:01:22.985Z,30.83
2018-04-23T16:01:54.187Z,30.91
2018-04-23T16:02:25.396Z,30.98
2018-04-23T16:02:56.634Z,30.94
2018-04-23T16:03:27.833Z,30.85
2018-04-23T16:03:59.082Z,30.83
2018-04-23T16:04:30.365Z,30.92
2018-04-23T16:05:01.591Z,30.94
2018-04-23T16:05:32.817Z,31.00
2018-04-23T16:06:04.041Z,31.00
2018-04-23T16:06:36.230Z,30.99
2018-04-23T16:07:07.462Z,31.03
2018-04-23T16:07:39.639Z,31.02
2018-04-23T16:08:10.895Z,31.03
2018-04-23T16:08:42.155Z,31.04
2018-04-23T16:09:13.356Z,31.08
2018-04-23T16:09:44.619Z,31.11
2018-04-23T16:10:15.903Z,31.15
2018-04-23T16:10:47.169Z,31.18
2018-04-23T16:11:18.390Z,31.16
2018-04-23T16:11:49.599Z,31.16
2018-04-23T16:12:20.836Z,31.14
2018-04-23T16:12:52.044Z,31.09
2018-04-23T16:13:23.875Z,31.03
2018-04-23T16:13:55.140Z,30.89
2018-04-23T16:14:26.365Z,30.84
2018-04-23T16:14:57.569Z,30.77
2018-04-23T16:15:28.783Z,30.76
2018-04-23T16:15:59.996Z,30.75
2018-04-23T16:16:31.270Z,30.78
2018-04-23T16:17:02.568Z,30.81
2018-04-23T16:17:33.776Z,30.74
2018-04-23T16:18:04.976Z,30.66
2018-04-23T16:18:36.187Z,30.64
2018-04-23T16:19:07.440Z,30.61
2018-04-23T16:19:38.686Z,30.55
2018-04-23T16:20:10.054Z,30.53
2018-04-23T16:20:41.269Z,30.54
2018-04-23T16:21:12.473Z,30.59
2018-04-23T16:21:44.805Z,30.59
2018-04-23T16:22:16.085Z,30.57
2018-04-23T16:22:47.308Z,30.57
2018-04-23T16:23:18.581Z,30.55
2018-04-23T16:23:49.790Z,30.52
2018-04-23T16:24:21.001Z,30.50
2018-04-23T16:24:52.204Z,30.47
2018-04-23T16:25:24.047Z,30.39
2018-04-23T16:25:55.264Z,30.37
2018-04-23T16:26:26.898Z,30.32
2018-04-23T16:26:58.104Z,30.27
2018-04-23T16:27:29.339Z,30.23
2018-04-23T16:28:00.573Z,30.18
2018-04-23T16:28:31.825Z,30.17
2018-04-23T16:29:04.009Z,30.15
2018-04-23T16:29:35.253Z,30.15
2018-04-23T16:30:06.544Z,30.15
2018-04-23T16:30:37.728Z,30.13
2018-04-23T16:31:08.973Z,30.12
2018-04-23T16:31:40.184Z,30.04
2018-04-23T16:32:11.449Z,30.01
2018-04-23T16:32:42.692Z,30.01
2018-04-23T16:33:13.924Z,29.94
2018-04-23T16:33:45.165Z,29.90
2018-04-23T16:34:16.393Z,29.86
2018-04-23T16:34:47.601Z,29.80
2018-04-23T16:35:18.804Z,29.76
2018-04-23T16:35:50.025Z,29.72
2018-04-23T16:36:21.264Z,29.69
2018-04-23T16:36:52.472Z,29.67
2018-04-23T16:37:23.721Z,29.61
2018-04-23T16:37:54.914Z,29.58
2018-04-23T16:38:26.125Z,29.56
2018-04-23T16:38:57.346Z,29.51
2018-04-23T16:39:28.600Z,29.50
2018-04-23T16:39:59.842Z,29.50
2018-04-23T16:40:31.061Z,29.50
2018-04-23T16:41:02.298Z,29.49
2018-04-23T16:41:33.586Z,29.51
2018-04-23T16:42:04.816Z,29.54
2018-04-23T16:42:36.030Z,29.55
2018-04-23T16:43:07.253Z,29.57
2018-04-23T16:43:38.509Z,29.58
2018-04-23T16:44:09.774Z,29.56
2018-04-23T16:44:41.018Z,29.54
2018-04-23T16:45:12.258Z,29.49
2018-04-23T16:45:43.465Z,29.46
2018-04-23T16:46:14.673Z,29.46
2018-04-23T16:46:45.894Z,29.41
2018-04-23T16:47:17.134Z,29.51
2018-04-23T16:47:48.352Z,29.49
2018-04-23T16:48:19.721Z,29.47
2018-04-23T16:48:51.055Z,29.46
2018-04-23T16:49:22.831Z,29.45
2018-04-23T16:49:54.041Z,29.43
2018-04-23T16:50:25.253Z,29.38
2018-04-23T16:50:57.757Z,29.32
2018-04-23T16:51:29.038Z,29.21
2018-04-23T16:52:00.281Z,29.24
2018-04-23T16:52:31.501Z,29.14
2018-04-23T16:53:02.713Z,29.04
2018-04-23T16:53:33.925Z,29.15
2018-04-23T16:54:05.154Z,29.16
2018-04-23T16:54:37.032Z,29.14
2018-04-23T16:55:08.325Z,29.14
2018-04-23T16:55:39.620Z,29.13
2018-04-23T16:56:10.877Z,29.12
2018-04-23T16:56:42.192Z,29.03
2018-04-23T16:57:13.435Z,29.01
2018-04-23T16:57:44.652Z,29.02
2018-04-23T16:58:15.858Z,28.99
2018-04-23T16:58:47.067Z,29.01
2018-04-23T16:59:18.273Z,29.02
2018-04-23T16:59:50.515Z,29.01
2018-04-23T17:00:21.753Z,28.93
2018-04-23T17:00:52.988Z,28.88
2018-04-23T17:01:24.212Z,28.87
2018-04-23T17:01:55.430Z,28.90
2018-04-23T17:02:26.688Z,28.89
2018-04-23T17:02:57.874Z,28.90
2018-04-23T17:03:29.117Z,28.85
2018-04-23T17:04:00.381Z,28.84
2018-04-23T17:04:32.264Z,28.82
2018-04-23T17:05:03.497Z,28.79
2018-04-23T17:05:35.813Z,28.74
2018-04-23T17:06:07.070Z,28.69
2018-04-23T17:06:38.351Z,28.65
2018-04-23T17:07:09.585Z,28.64
2018-04-23T17:07:42.566Z,28.60
2018-04-23T17:08:13.788Z,28.60
2018-04-23T17:08:45.011Z,28.58
2018-04-23T17:09:16.281Z,28.57
2018-04-23T17:09:47.536Z,28.56
2018-04-23T17:10:18.734Z,28.52
2018-04-23T17:10:49.977Z,28.50
2018-04-23T17:11:21.189Z,28.49
2018-04-23T17:11:52.427Z,28.44
2018-04-23T17:12:23.671Z,28.43
2018-04-23T17:12:55.022Z,28.44
2018-04-23T17:13:26.394Z,28.43
2018-04-23T17:13:57.650Z,28.41
2018-04-23T17:14:28.881Z,28.41
2018-04-23T17:15:00.100Z,28.40
2018-04-23T17:15:31.298Z,28.37
2018-04-23T17:16:02.517Z,28.34
2018-04-23T17:16:33.763Z,28.29
2018-04-23T17:17:04.974Z,28.22
2018-04-23T17:17:36.570Z,28.16
2018-04-23T17:18:07.784Z,28.17
2018-04-23T17:18:39.001Z,28.15
2018-04-23T17:19:10.223Z,28.13
2018-04-23T17:19:41.783Z,28.13
2018-04-23T17:20:12.999Z,28.12
2018-04-23T17:20:44.216Z,28.09
2018-04-23T17:21:15.468Z,28.08
2018-04-23T17:21:47.390Z,28.05
2018-04-23T17:22:18.652Z,28.02
2018-04-23T17:22:49.889Z,27.97
2018-04-23T17:23:21.105Z,27.91
2018-04-23T17:23:52.318Z,27.93
2018-04-23T17:24:23.565Z,27.90
2018-04-23T17:24:54.788Z,27.92
2018-04-23T17:25:25.993Z,27.95
2018-04-23T17:25:57.222Z,27.96
2018-04-23T17:26:28.438Z,27.94
2018-04-23T17:26:59.666Z,27.93
2018-04-23T17:27:30.932Z,27.91
2018-04-23T17:28:02.162Z,27.88
2018-04-23T17:28:36.150Z,27.86
2018-04-23T17:29:08.261Z,27.80
2018-04-23T17:29:39.468Z,27.83
2018-04-23T17:30:10.692Z,27.79
2018-04-23T17:30:41.906Z,27.79
2018-04-23T17:31:13.146Z,27.79
2018-04-23T17:31:44.345Z,27.75
2018-04-23T17:32:15.552Z,27.73
2018-04-23T17:32:46.792Z,27.69
2018-04-23T17:33:18.001Z,27.66
2018-04-23T17:33:49.270Z,27.63
2018-04-23T17:34:20.536Z,27.59
2018-04-23T17:34:51.745Z,27.51
2018-04-23T17:35:22.969Z,27.56
2018-04-23T17:35:54.177Z,27.55
2018-04-23T17:36:25.400Z,27.56
2018-04-23T17:36:56.613Z,27.56
2018-04-23T17:37:27.838Z,27.54
2018-04-23T17:37:59.065Z,27.48
2018-04-23T17:38:30.288Z,27.44
2018-04-23T17:39:01.510Z,27.37
2018-04-23T17:39:32.797Z,27.32
2018-04-23T17:40:04.038Z,27.34
2018-04-23T17:40:35.268Z,27.37
2018-04-23T17:41:06.499Z,27.40
2018-04-23T17:41:37.779Z,27.41
2018-04-23T17:42:08.996Z,27.39
2018-04-23T17:42:40.196Z,27.36
2018-04-23T17:43:11.401Z,27.34
2018-04-23T17:43:42.613Z,27.31
2018-04-23T17:44:13.827Z,27.30
2018-04-23T17:44:45.075Z,27.28
2018-04-23T17:45:16.280Z,27.24
2018-04-23T17:45:47.484Z,27.25
2018-04-23T17:46:18.749Z,27.21
2018-04-23T17:46:49.981Z,27.20
2018-04-23T17:47:21.166Z,27.15
2018-04-23T17:47:52.413Z,27.13
2018-04-23T17:48:23.645Z,27.08
2018-04-23T17:48:54.887Z,27.06
2018-04-23T17:49:26.098Z,27.03
2018-04-23T17:49:57.354Z,27.01
2018-04-23T17:50:28.592Z,26.98
2018-04-23T17:50:59.832Z,26.93
2018-04-23T17:51:31.053Z,26.91
2018-04-23T17:52:02.271Z,26.89
2018-04-23T17:52:33.494Z,26.86
2018-04-23T17:53:04.721Z,26.83
2018-04-23T17:53:35.947Z,26.84
2018-04-23T17:54:07.260Z,26.85
2018-04-23T17:54:38.515Z,26.86
2018-04-23T17:55:09.733Z,26.84
2018-04-23T17:55:40.966Z,26.82
2018-04-23T17:56:12.173Z,26.81
2018-04-23T17:56:43.495Z,26.80
2018-04-23T17:57:14.712Z,26.81
2018-04-23T17:57:45.926Z,26.82
2018-04-23T17:58:17.172Z,26.85
2018-04-23T17:58:48.399Z,26.88
2018-04-23T17:59:20.321Z,26.88
2018-04-23T17:59:51.563Z,26.86
2018-04-23T18:00:22.774Z,26.84
2018-04-23T18:00:53.977Z,26.80
2018-04-23T18:01:25.246Z,26.76
2018-04-23T18:01:56.469Z,26.71
2018-04-23T18:02:27.683Z,26.70
2018-04-23T18:02:58.909Z,26.69
2018-04-23T18:03:30.141Z,26.64
2018-04-23T18:04:01.362Z,26.62
2018-04-23T18:04:33.831Z,26.61
2018-04-23T18:05:05.132Z,26.59
2018-04-23T18:05:36.420Z,26.59
2018-04-23T18:06:07.640Z,26.60
2018-04-23T18:06:38.893Z,26.53
2018-04-23T18:07:10.124Z,26.58
2018-04-23T18:07:41.771Z,26.57
2018-04-23T18:08:12.977Z,26.55
2018-04-23T18:08:44.205Z,26.52
2018-04-23T18:09:15.507Z,26.56
2018-04-23T18:09:46.729Z,26.55
2018-04-23T18:10:17.949Z,26.58
2018-04-23T18:10:49.168Z,26.59
2018-04-23T18:11:20.440Z,26.59
2018-04-23T18:11:51.680Z,26.59
2018-04-23T18:12:22.905Z,26.54
2018-04-23T18:12:54.116Z,26.50
2018-04-23T18:13:25.340Z,26.47
2018-04-23T18:13:56.580Z,26.42
2018-04-23T18:14:27.841Z,26.37
2018-04-23T18:14:59.047Z,26.34
2018-04-23T18:15:30.379Z,26.32
2018-04-23T18:16:01.626Z,26.29
2018-04-23T18:16:32.841Z,26.28
2018-04-23T18:17:04.099Z,26.22
2018-04-23T18:17:35.356Z,26.21
2018-04-23T18:18:06.603Z,26.19
2018-04-23T18:18:38.958Z,26.19
2018-04-23T18:19:10.161Z,26.18
2018-04-23T18:19:41.366Z,26.16
2018-04-23T18:20:12.626Z,26.16
2018-04-23T18:20:43.836Z,26.15
2018-04-23T18:21:15.059Z,26.16
2018-04-23T18:21:46.327Z,26.16
2018-04-23T18:22:17.568Z,26.16
2018-04-23T18:22:48.783Z,26.15
2018-04-23T18:23:20.026Z,26.16
2018-04-23T18:23:51.285Z,26.10
2018-04-23T18:24:22.522Z,26.08
2018-04-23T18:24:53.754Z,26.08
2018-04-23T18:25:24.976Z,26.08
2018-04-23T18:25:56.161Z,26.08
2018-04-23T18:26:27.388Z,26.07
2018-04-23T18:26:58.648Z,26.08
2018-04-23T18:27:29.861Z,26.09
2018-04-23T18:28:01.083Z,26.07
2018-04-23T18:28:32.289Z,26.08
2018-04-23T18:29:03.542Z,26.06
2018-04-23T18:29:34.792Z,26.05
2018-04-23T18:30:05.998Z,26.02
2018-04-23T18:30:37.203Z,25.96
2018-04-23T18:31:08.405Z,25.92
2018-04-23T18:31:39.655Z,25.89
2018-04-23T18:32:10.897Z,25.85
2018-04-23T18:32:42.129Z,25.83
2018-04-23T18:33:13.358Z,25.84
2018-04-23T18:33:44.741Z,25.87
2018-04-23T18:34:15.949Z,25.89
2018-04-23T18:34:47.205Z,25.91
2018-04-23T18:35:18.428Z,25.92
2018-04-23T18:35:49.698Z,25.89
2018-04-23T18:36:21.003Z,25.87
2018-04-23T18:36:52.238Z,25.82
2018-04-23T18:37:25.639Z,25.86
2018-04-23T18:37:56.866Z,25.87
2018-04-23T18:38:28.090Z,25.77
2018-04-23T18:38:59.291Z,25.88
2018-04-23T18:39:30.516Z,25.91
2018-04-23T18:40:01.763Z,25.92
2018-04-23T18:40:33.747Z,25.90
2018-04-23T18:41:04.959Z,25.86
2018-04-23T18:41:36.253Z,25.82
2018-04-23T18:42:07.493Z,25.77
2018-04-23T18:42:38.708Z,25.71
2018-04-23T18:43:09.991Z,25.67
2018-04-23T18:43:41.190Z,25.62
2018-04-23T18:44:12.407Z,25.57
2018-04-23T18:44:43.613Z,25.51
2018-04-23T18:45:14.834Z,25.49
2018-04-23T18:45:47.023Z,25.45
2018-04-23T18:46:18.220Z,25.46
2018-04-23T18:46:49.487Z,25.45
2018-04-23T18:47:21.317Z,25.47
2018-04-23T18:47:52.860Z,25.48
2018-04-23T18:48:24.109Z,25.47
2018-04-23T18:48:55.334Z,25.48
2018-04-23T18:49:26.557Z,25.47
2018-04-23T18:49:57.812Z,25.47
2018-04-23T18:50:29.024Z,25.45
2018-04-23T18:51:00.300Z,25.45
2018-04-23T18:51:31.508Z,25.43
2018-04-23T18:52:02.728Z,25.43
2018-04-23T18:52:34.123Z,25.41
2018-04-23T18:53:05.853Z,25.42
2018-04-23T18:53:37.058Z,25.44
2018-04-23T18:54:08.264Z,25.45
2018-04-23T18:54:39.873Z,25.44
2018-04-23T18:55:11.248Z,25.42
2018-04-23T18:55:42.456Z,25.39
2018-04-23T18:56:13.670Z,25.38
2018-04-23T18:56:44.898Z,25.37
2018-04-23T18:57:16.104Z,25.33
2018-04-23T18:57:47.334Z,25.30
2018-04-23T18:58:18.642Z,25.27
2018-04-23T18:58:50.705Z,25.25
2018-04-23T18:59:21.920Z,25.23
2018-04-23T18:59:53.137Z,25.25
2018-04-23T19:00:24.349Z,25.18
2018-04-23T19:00:56.229Z,25.18
2018-04-23T19:01:27.485Z,25.19
2018-04-23T19:01:59.134Z,25.20
2018-04-23T19:02:30.405Z,25.19
2018-04-23T19:03:01.598Z,25.17
2018-04-23T19:03:32.807Z,25.19
2018-04-23T19:04:04.033Z,25.22
2018-04-23T19:04:35.285Z,25.22
2018-04-23T19:05:06.505Z,25.23
2018-04-23T19:05:37.745Z,25.23
2018-04-23T19:06:08.963Z,25.22
2018-04-23T19:06:40.172Z,25.20
2018-04-23T19:07:11.449Z,25.22
2018-04-23T19:07:42.664Z,25.22
2018-04-23T19:08:13.879Z,25.19
2018-04-23T19:08:45.136Z,25.18
2018-04-23T19:09:16.369Z,25.19
2018-04-23T19:09:47.606Z,25.19
2018-04-23T19:10:18.822Z,25.19
2018-04-23T19:10:50.042Z,25.16
2018-04-23T19:11:21.271Z,25.16
2018-04-23T19:11:52.480Z,25.15
2018-04-23T19:12:23.741Z,25.14
2018-04-23T19:12:54.949Z,25.13
2018-04-23T19:13:26.187Z,25.11
2018-04-23T19:13:57.397Z,25.10
2018-04-23T19:14:28.620Z,25.09
2018-04-23T19:14:59.960Z,25.07
2018-04-23T19:15:31.191Z,25.06
2018-04-23T19:16:02.452Z,25.02
2018-04-23T19:16:33.703Z,24.99
2018-04-23T19:17:04.912Z,24.98
2018-04-23T19:17:36.122Z,24.99
2018-04-23T19:18:07.329Z,25.01
2018-04-23T19:18:38.531Z,24.99
2018-04-23T19:19:09.745Z,25.04
2018-04-23T19:19:40.960Z,25.04
2018-04-23T19:20:12.201Z,25.04
2018-04-23T19:20:43.429Z,25.04
2018-04-23T19:21:14.658Z,25.04
2018-04-23T19:21:46.236Z,25.00
2018-04-23T19:22:17.410Z,25.02
2018-04-23T19:22:48.629Z,25.03
2018-04-23T19:23:19.846Z,25.01
2018-04-23T19:23:51.058Z,25.00
2018-04-23T19:24:22.261Z,24.99
2018-04-23T19:24:54.331Z,24.97
2018-04-23T19:25:25.536Z,24.96
2018-04-23T19:25:56.789Z,24.94
2018-04-23T19:26:28.008Z,24.93
2018-04-23T19:26:59.229Z,24.93
2018-04-23T19:27:30.460Z,24.92
2018-04-23T19:28:01.668Z,24.92
2018-04-23T19:28:32.875Z,24.90
2018-04-23T19:29:04.102Z,24.88
2018-04-23T19:29:35.361Z,24.87
2018-04-23T19:30:06.599Z,24.86
2018-04-23T19:30:37.801Z,24.85
2018-04-23T19:31:08.996Z,24.80
2018-04-23T19:31:40.210Z,24.80
2018-04-23T19:32:11.456Z,24.78
2018-04-23T19:32:43.322Z,24.78
2018-04-23T19:33:14.704Z,24.79
2018-04-23T19:33:45.917Z,24.78
2018-04-23T19:34:17.140Z,24.78
2018-04-23T19:34:51.421Z,24.77
2018-04-23T19:35:22.742Z,24.75
2018-04-23T19:35:53.986Z,24.74
2018-04-23T19:36:25.329Z,24.73
2018-04-23T19:36:56.566Z,24.73
2018-04-23T19:37:27.774Z,24.72
2018-04-23T19:37:59.027Z,24.72
2018-04-23T19:38:30.273Z,24.71
2018-04-23T19:39:01.523Z,24.67
2018-04-23T19:39:32.734Z,24.65
2018-04-23T19:40:04.010Z,24.64
2018-04-23T19:40:35.272Z,24.61
2018-04-23T19:41:06.482Z,24.59
2018-04-23T19:41:37.719Z,24.57
2018-04-23T19:42:08.925Z,24.55
2018-04-23T19:42:40.157Z,24.52
2018-04-23T19:43:11.393Z,24.43
2018-04-23T19:43:42.618Z,24.43
2018-04-23T19:44:13.880Z,24.43
2018-04-23T19:44:45.133Z,24.44
2018-04-23T19:45:16.336Z,24.44
2018-04-23T19:45:47.628Z,24.45
2018-04-23T19:46:18.937Z,24.44
2018-04-23T19:46:50.119Z,24.39
2018-04-23T19:47:21.306Z,24.34
2018-04-23T19:47:52.505Z,24.36
2018-04-23T19:48:23.708Z,24.38
2018-04-23T19:48:55.543Z,24.41
2018-04-23T19:49:26.723Z,24.42
2018-04-23T19:49:57.923Z,24.43
2018-04-23T19:50:29.168Z,24.42
2018-04-23T19:51:00.427Z,24.38
2018-04-23T19:51:31.651Z,24.18
2018-04-23T19:52:02.947Z,24.16
2018-04-23T19:52:34.221Z,24.16
2018-04-23T19:53:05.495Z,24.14
2018-04-23T19:53:36.857Z,24.14
2018-04-23T19:54:08.070Z,24.16